sensor_id;sensor_type;location;lat;lon;timestamp;pressure;altitude;pressure_sealevel;temperature;humidity
45040;BME280;30778;53.574;7.770;2023-05-20T00:01:14;102756.66;;;9.78;49.19
45040;BME280;30778;53.574;7.770;2023-05-20T00:03:48;102755.81;;;9.80;48.71
45040;BME280;30778;53.574;7.770;2023-05-20T00:06:17;102756.63;;;9.89;48.45
45040;BME280;30778;53.574;7.770;2023-05-20T00:08:47;102752.28;;;9.89;48.18
45040;BME280;30778;53.574;7.770;2023-05-20T00:11:17;102752.22;;;9.94;48.28
45040;BME280;30778;53.574;7.770;2023-05-20T00:13:45;102760.97;;;9.90;47.74
45040;BME280;30778;53.574;7.770;2023-05-20T00:16:13;102752.16;;;10.03;47.08
45040;BME280;30778;53.574;7.770;2023-05-20T00:18:48;102742.44;;;10.19;46.50
45040;BME280;30778;53.574;7.770;2023-05-20T00:21:18;102748.53;;;10.22;46.71
45040;BME280;30778;53.574;7.770;2023-05-20T00:23:46;102755.50;;;10.19;46.22
45040;BME280;30778;53.574;7.770;2023-05-20T00:26:14;102754.47;;;10.38;45.67
45040;BME280;30778;53.574;7.770;2023-05-20T00:28:52;102755.34;;;10.39;45.38
45040;BME280;30778;53.574;7.770;2023-05-20T00:31:26;102755.28;;;10.45;45.47
45040;BME280;30778;53.574;7.770;2023-05-20T00:33:57;102752.66;;;10.47;45.16
45040;BME280;30778;53.574;7.770;2023-05-20T00:36:33;102750.19;;;10.33;44.83
45040;BME280;30778;53.574;7.770;2023-05-20T00:39:04;102748.59;;;10.13;45.34
45040;BME280;30778;53.574;7.770;2023-05-20T00:41:34;102752.66;;;10.48;44.45
45040;BME280;30778;53.574;7.770;2023-05-20T00:44:03;102753.56;;;10.41;43.90
45040;BME280;30778;53.574;7.770;2023-05-20T00:46:42;102751.72;;;10.52;43.76
45040;BME280;30778;53.574;7.770;2023-05-20T00:49:10;102751.72;;;10.55;43.19
45040;BME280;30778;53.574;7.770;2023-05-20T00:51:41;102750.06;;;10.48;42.49
45040;BME280;30778;53.574;7.770;2023-05-20T00:54:14;102740.56;;;10.36;42.70
45040;BME280;30778;53.574;7.770;2023-05-20T00:56:47;102736.13;;;10.46;42.38
45040;BME280;30778;53.574;7.770;2023-05-20T00:59:16;102733.41;;;10.55;42.09
45040;BME280;30778;53.574;7.770;2023-05-20T01:01:44;102737.84;;;10.46;41.83
45040;BME280;30778;53.574;7.770;2023-05-20T01:04:19;102731.72;;;10.50;41.70
45040;BME280;30778;53.574;7.770;2023-05-20T01:06:54;102731.63;;;10.59;41.31
45040;BME280;30778;53.574;7.770;2023-05-20T01:09:23;102737.75;;;10.58;41.71
45040;BME280;30778;53.574;7.770;2023-05-20T01:17:32;102725.66;;;10.46;41.21
45040;BME280;30778;53.574;7.770;2023-05-20T01:20:10;102737.06;;;10.37;41.03
45040;BME280;30778;53.574;7.770;2023-05-20T01:22:51;102731.75;;;10.45;41.21
45040;BME280;30778;53.574;7.770;2023-05-20T01:25:25;102723.91;;;10.48;41.25
45040;BME280;30778;53.574;7.770;2023-05-20T01:27:51;102724.97;;;10.29;41.27
45040;BME280;30778;53.574;7.770;2023-05-20T01:30:25;102723.97;;;10.42;41.21
45040;BME280;30778;53.574;7.770;2023-05-20T01:33:06;102724.81;;;10.42;40.65
45040;BME280;30778;53.574;7.770;2023-05-20T01:35:35;102721.28;;;10.47;40.76
45040;BME280;30778;53.574;7.770;2023-05-20T01:38:11;102722.22;;;10.41;40.53
45040;BME280;30778;53.574;7.770;2023-05-20T01:40:40;102716.22;;;10.33;40.31
45040;BME280;30778;53.574;7.770;2023-05-20T01:43:16;102718.81;;;10.33;40.21
45040;BME280;30778;53.574;7.770;2023-05-20T01:45:49;102719.72;;;10.29;40.16
45040;BME280;30778;53.574;7.770;2023-05-20T01:48:17;102709.31;;;10.24;39.67
45040;BME280;30778;53.574;7.770;2023-05-20T01:50:43;102716.16;;;10.34;39.53
45040;BME280;30778;53.574;7.770;2023-05-20T01:53:13;102716.13;;;10.39;39.21
45040;BME280;30778;53.574;7.770;2023-05-20T01:55:55;102722.28;;;10.33;38.93
45040;BME280;30778;53.574;7.770;2023-05-20T01:58:24;102724.91;;;10.33;39.05
45040;BME280;30778;53.574;7.770;2023-05-20T02:00:53;102726.56;;;10.42;39.17
45040;BME280;30778;53.574;7.770;2023-05-20T02:03:34;102723.91;;;10.45;39.09
45040;BME280;30778;53.574;7.770;2023-05-20T02:06:06;102725.72;;;10.40;38.56
45040;BME280;30778;53.574;7.770;2023-05-20T02:08:34;102721.44;;;10.33;38.74
45040;BME280;30778;53.574;7.770;2023-05-20T02:11:02;102727.47;;;10.38;38.97
45040;BME280;30778;53.574;7.770;2023-05-20T02:13:30;102727.75;;;10.10;38.79
45040;BME280;30778;53.574;7.770;2023-05-20T02:16:08;102730.16;;;10.30;38.18
45040;BME280;30778;53.574;7.770;2023-05-20T02:18:38;102730.28;;;10.18;38.11
45040;BME280;30778;53.574;7.770;2023-05-20T02:21:09;102727.69;;;10.13;38.66
45040;BME280;30778;53.574;7.770;2023-05-20T02:23:57;102719.91;;;10.10;38.53
45040;BME280;30778;53.574;7.770;2023-05-20T02:26:25;102727.63;;;10.21;38.30
45040;BME280;30778;53.574;7.770;2023-05-20T02:28:53;102731.09;;;10.26;38.49
45040;BME280;30778;53.574;7.770;2023-05-20T02:31:35;102731.94;;;10.25;38.66
45040;BME280;30778;53.574;7.770;2023-05-20T02:34:01;102726.94;;;10.04;38.59
45040;BME280;30778;53.574;7.770;2023-05-20T02:36:29;102732.06;;;10.13;38.71
45040;BME280;30778;53.574;7.770;2023-05-20T02:39:02;102721.66;;;10.07;38.66
45040;BME280;30778;53.574;7.770;2023-05-20T02:41:29;102717.50;;;9.83;38.68
45040;BME280;30778;53.574;7.770;2023-05-20T02:44:00;102719.25;;;9.74;39.21
45040;BME280;30778;53.574;7.770;2023-05-20T02:46:36;102725.34;;;9.78;39.27
45040;BME280;30778;53.574;7.770;2023-05-20T02:49:04;102724.53;;;9.65;39.98
45040;BME280;30778;53.574;7.770;2023-05-20T02:51:29;102725.47;;;9.59;39.85
45040;BME280;30778;53.574;7.770;2023-05-20T02:53:57;102729.03;;;9.46;40.02
45040;BME280;30778;53.574;7.770;2023-05-20T02:56:33;102736.13;;;9.21;40.83
45040;BME280;30778;53.574;7.770;2023-05-20T02:59:00;102729.16;;;9.22;40.91
45040;BME280;30778;53.574;7.770;2023-05-20T03:01:36;102728.31;;;9.15;41.31
45040;BME280;30778;53.574;7.770;2023-05-20T03:04:10;102727.44;;;9.14;40.81
45040;BME280;30778;53.574;7.770;2023-05-20T03:06:41;102725.78;;;8.96;41.47
45040;BME280;30778;53.574;7.770;2023-05-20T03:09:16;102732.72;;;8.96;41.65
45040;BME280;30778;53.574;7.770;2023-05-20T03:11:44;102736.28;;;8.76;42.06
45040;BME280;30778;53.574;7.770;2023-05-20T03:14:11;102733.66;;;8.66;42.39
45040;BME280;30778;53.574;7.770;2023-05-20T03:16:39;102739.75;;;8.60;42.57
45040;BME280;30778;53.574;7.770;2023-05-20T03:19:05;102738.91;;;8.47;42.64
45040;BME280;30778;53.574;7.770;2023-05-20T03:21:41;102739.78;;;8.37;42.71
45040;BME280;30778;53.574;7.770;2023-05-20T03:24:10;102733.69;;;8.38;42.90
45040;BME280;30778;53.574;7.770;2023-05-20T03:26:41;102738.91;;;8.38;43.27
45040;BME280;30778;53.574;7.770;2023-05-20T03:29:17;102735.44;;;8.33;43.15
45040;BME280;30778;53.574;7.770;2023-05-20T03:31:53;102733.72;;;8.27;43.50
45040;BME280;30778;53.574;7.770;2023-05-20T03:34:28;102731.09;;;8.10;43.96
45040;BME280;30778;53.574;7.770;2023-05-20T03:36:54;102731.97;;;8.03;44.17
45040;BME280;30778;53.574;7.770;2023-05-20T03:39:27;102728.50;;;8.07;44.32
45040;BME280;30778;53.574;7.770;2023-05-20T03:41:53;102729.38;;;8.02;44.26
45040;BME280;30778;53.574;7.770;2023-05-20T03:44:23;102731.09;;;7.93;44.86
45040;BME280;30778;53.574;7.770;2023-05-20T03:46:48;102729.38;;;8.05;44.70
45040;BME280;30778;53.574;7.770;2023-05-20T03:49:26;102738.91;;;8.01;45.21
45040;BME280;30778;53.574;7.770;2023-05-20T03:51:57;102730.22;;;8.02;44.66
45040;BME280;30778;53.574;7.770;2023-05-20T03:54:27;102737.19;;;8.06;44.85
45040;BME280;30778;53.574;7.770;2023-05-20T03:57:08;102737.19;;;8.08;44.29
45040;BME280;30778;53.574;7.770;2023-05-20T03:59:38;102735.44;;;8.14;44.44
45040;BME280;30778;53.574;7.770;2023-05-20T04:02:07;102737.16;;;8.20;44.07
45040;BME280;30778;53.574;7.770;2023-05-20T04:04:40;102738.03;;;8.33;44.14
45040;BME280;30778;53.574;7.770;2023-05-20T04:07:10;102731.94;;;8.45;43.75
45040;BME280;30778;53.574;7.770;2023-05-20T04:09:38;102739.78;;;8.48;43.19
45040;BME280;30778;53.574;7.770;2023-05-20T04:12:06;102740.63;;;8.65;43.08
45040;BME280;30778;53.574;7.770;2023-05-20T04:14:32;102735.38;;;8.70;43.11
45040;BME280;30778;53.574;7.770;2023-05-20T04:17:03;102738.00;;;8.65;42.91
45040;BME280;30778;53.574;7.770;2023-05-20T04:19:37;102739.75;;;8.68;43.05
45040;BME280;30778;53.574;7.770;2023-05-20T04:22:10;102737.16;;;8.59;43.66
45040;BME280;30778;53.574;7.770;2023-05-20T04:24:40;102738.00;;;8.70;43.79
45040;BME280;30778;53.574;7.770;2023-05-20T04:27:16;102740.59;;;8.82;43.53
45040;BME280;30778;53.574;7.770;2023-05-20T04:29:42;102733.63;;;8.83;43.66
45040;BME280;30778;53.574;7.770;2023-05-20T04:32:15;102731.00;;;8.90;43.40
45040;BME280;30778;53.574;7.770;2023-05-20T04:34:45;102735.34;;;8.93;43.60
45040;BME280;30778;53.574;7.770;2023-05-20T04:37:12;102738.84;;;8.92;43.80
45040;BME280;30778;53.574;7.770;2023-05-20T04:39:46;102734.47;;;9.03;43.75
45040;BME280;30778;53.574;7.770;2023-05-20T04:42:23;102729.16;;;9.15;43.52
45040;BME280;30778;53.574;7.770;2023-05-20T04:44:58;102734.34;;;9.28;43.83
45040;BME280;30778;53.574;7.770;2023-05-20T04:47:41;102730.00;;;9.28;43.68
45040;BME280;30778;53.574;7.770;2023-05-20T04:50:11;102729.97;;;9.34;43.42
45040;BME280;30778;53.574;7.770;2023-05-20T04:52:40;102729.69;;;9.84;42.99
45040;BME280;30778;53.574;7.770;2023-05-20T04:55:12;102736.78;;;10.63;41.34
45040;BME280;30778;53.574;7.770;2023-05-20T04:57:46;102740.88;;;11.57;39.46
45040;BME280;30778;53.574;7.770;2023-05-20T05:00:17;102734.84;;;12.59;38.06
45040;BME280;30778;53.574;7.770;2023-05-20T05:02:57;102731.97;;;14.29;35.26
45040;BME280;30778;53.574;7.770;2023-05-20T05:05:38;102725.44;;;16.19;31.60
45040;BME280;30778;53.574;7.770;2023-05-20T05:08:11;102722.91;;;17.59;28.92
45040;BME280;30778;53.574;7.770;2023-05-20T05:10:49;102722.25;;;17.30;28.65
45040;BME280;30778;53.574;7.770;2023-05-20T05:13:18;102725.03;;;17.71;27.60
45040;BME280;30778;53.574;7.770;2023-05-20T05:15:43;102724.31;;;18.31;26.89
45040;BME280;30778;53.574;7.770;2023-05-20T05:18:14;102719.41;;;18.81;25.62
45040;BME280;30778;53.574;7.770;2023-05-20T05:21:06;102721.78;;;18.87;25.87
45040;BME280;30778;53.574;7.770;2023-05-20T05:23:35;102721.91;;;18.84;25.74
45040;BME280;30778;53.574;7.770;2023-05-20T05:26:12;102726.69;;;18.76;24.86
45040;BME280;30778;53.574;7.770;2023-05-20T05:28:44;102724.09;;;18.95;24.89
45040;BME280;30778;53.574;7.770;2023-05-20T05:31:12;102730.06;;;18.20;25.46
45040;BME280;30778;53.574;7.770;2023-05-20T05:33:40;102731.09;;;18.16;25.69
45040;BME280;30778;53.574;7.770;2023-05-20T05:36:10;102727.84;;;19.27;24.50
45040;BME280;30778;53.574;7.770;2023-05-20T05:38:36;102726.75;;;18.95;24.61
45040;BME280;30778;53.574;7.770;2023-05-20T05:41:04;102729.16;;;18.41;25.39
45040;BME280;30778;53.574;7.770;2023-05-20T05:43:40;102726.56;;;17.77;26.35
45040;BME280;30778;53.574;7.770;2023-05-20T05:46:08;102727.78;;;17.46;26.34
45040;BME280;30778;53.574;7.770;2023-05-20T05:48:36;102726.84;;;17.91;25.85
45040;BME280;30778;53.574;7.770;2023-05-20T05:51:06;102726.84;;;18.12;25.66
45040;BME280;30778;53.574;7.770;2023-05-20T05:53:40;102732.34;;;18.68;25.44
45040;BME280;30778;53.574;7.770;2023-05-20T05:56:08;102719.22;;;19.05;24.35
45040;BME280;30778;53.574;7.770;2023-05-20T05:58:41;102723.09;;;19.17;24.27
45040;BME280;30778;53.574;7.770;2023-05-20T06:01:17;102714.63;;;19.08;24.18
45040;BME280;30778;53.574;7.770;2023-05-20T06:03:50;102713.88;;;19.62;23.83
45040;BME280;30778;53.574;7.770;2023-05-20T06:06:25;102723.31;;;19.85;24.09
45040;BME280;30778;53.574;7.770;2023-05-20T06:08:57;102715.50;;;19.99;23.38
45040;BME280;30778;53.574;7.770;2023-05-20T06:11:35;102721.38;;;19.52;23.86
45040;BME280;30778;53.574;7.770;2023-05-20T06:14:03;102722.16;;;19.54;23.85
45040;BME280;30778;53.574;7.770;2023-05-20T06:16:33;102714.56;;;19.65;24.01
45040;BME280;30778;53.574;7.770;2023-05-20T06:19:01;102718.75;;;20.72;22.91
45040;BME280;30778;53.574;7.770;2023-05-20T06:21:31;102714.63;;;21.32;23.52
45040;BME280;30778;53.574;7.770;2023-05-20T06:23:56;102714.84;;;21.59;22.55
45040;BME280;30778;53.574;7.770;2023-05-20T06:26:29;102714.44;;;20.87;23.54
45040;BME280;30778;53.574;7.770;2023-05-20T06:29:01;102715.41;;;21.02;22.53
45040;BME280;30778;53.574;7.770;2023-05-20T06:31:34;102717.78;;;22.15;21.43
45040;BME280;30778;53.574;7.770;2023-05-20T06:34:03;102724.47;;;21.30;22.21
45040;BME280;30778;53.574;7.770;2023-05-20T06:36:32;102722.31;;;20.05;23.12
45040;BME280;30778;53.574;7.770;2023-05-20T06:39:00;102726.38;;;20.29;23.49
45040;BME280;30778;53.574;7.770;2023-05-20T06:41:39;102716.69;;;20.62;23.00
45040;BME280;30778;53.574;7.770;2023-05-20T06:44:11;102715.47;;;21.17;22.96
45040;BME280;30778;53.574;7.770;2023-05-20T06:47:05;102718.25;;;21.77;22.23
45040;BME280;30778;53.574;7.770;2023-05-20T06:49:34;102715.75;;;21.12;22.94
45040;BME280;30778;53.574;7.770;2023-05-20T06:52:11;102704.91;;;21.63;22.36
45040;BME280;30778;53.574;7.770;2023-05-20T06:54:46;102698.41;;;23.12;21.43
45040;BME280;30778;53.574;7.770;2023-05-20T06:57:15;102703.84;;;22.83;22.33
45040;BME280;30778;53.574;7.770;2023-05-20T06:59:52;102700.31;;;22.54;21.73
45040;BME280;30778;53.574;7.770;2023-05-20T07:02:28;102704.75;;;22.10;22.00
45040;BME280;30778;53.574;7.770;2023-05-20T07:05:02;102705.59;;;22.11;21.96
45040;BME280;30778;53.574;7.770;2023-05-20T07:07:28;102697.72;;;22.38;23.07
45040;BME280;30778;53.574;7.770;2023-05-20T07:09:57;102692.38;;;22.38;22.25
45040;BME280;30778;53.574;7.770;2023-05-20T07:12:22;102696.38;;;21.72;22.65
45040;BME280;30778;53.574;7.770;2023-05-20T07:14:53;102693.63;;;22.47;22.68
45040;BME280;30778;53.574;7.770;2023-05-20T07:17:22;102684.22;;;22.55;21.60
45040;BME280;30778;53.574;7.770;2023-05-20T07:19:58;102685.50;;;22.91;21.37
45040;BME280;30778;53.574;7.770;2023-05-20T07:22:29;102684.72;;;23.04;21.36
45040;BME280;30778;53.574;7.770;2023-05-20T07:25:07;102690.13;;;23.83;20.41
45040;BME280;30778;53.574;7.770;2023-05-20T07:27:35;102682.56;;;24.16;20.42
45040;BME280;30778;53.574;7.770;2023-05-20T07:30:12;102681.84;;;23.61;21.18
45040;BME280;30778;53.574;7.770;2023-05-20T07:32:56;102684.22;;;23.78;21.17
45040;BME280;30778;53.574;7.770;2023-05-20T07:35:30;102676.84;;;23.29;20.75
45040;BME280;30778;53.574;7.770;2023-05-20T07:38:05;102667.50;;;23.22;21.45
45040;BME280;30778;53.574;7.770;2023-05-20T07:40:36;102667.13;;;23.01;22.07
45040;BME280;30778;53.574;7.770;2023-05-20T07:43:03;102661.34;;;23.61;21.73
45040;BME280;30778;53.574;7.770;2023-05-20T07:45:29;102665.56;;;24.42;20.78
45040;BME280;30778;53.574;7.770;2023-05-20T07:48:05;102660.28;;;24.41;20.70
45040;BME280;30778;53.574;7.770;2023-05-20T07:50:43;102663.19;;;24.38;20.64
45040;BME280;30778;53.574;7.770;2023-05-20T07:53:09;102667.31;;;23.52;22.03
45040;BME280;30778;53.574;7.770;2023-05-20T07:55:59;102657.59;;;23.51;22.18
45040;BME280;30778;53.574;7.770;2023-05-20T07:58:32;102662.75;;;23.27;22.09
45040;BME280;30778;53.574;7.770;2023-05-20T08:01:01;102663.88;;;24.41;21.09
45040;BME280;30778;53.574;7.770;2023-05-20T08:03:29;102660.41;;;24.52;20.27
45040;BME280;30778;53.574;7.770;2023-05-20T08:06:05;102652.19;;;24.79;20.38
45040;BME280;30778;53.574;7.770;2023-05-20T08:08:38;102660.78;;;24.72;20.62
45040;BME280;30778;53.574;7.770;2023-05-20T08:11:18;102657.38;;;25.07;20.15
45040;BME280;30778;53.574;7.770;2023-05-20T08:14:02;102648.28;;;24.72;20.28
45040;BME280;30778;53.574;7.770;2023-05-20T08:16:41;102634.66;;;24.51;20.63
45040;BME280;30778;53.574;7.770;2023-05-20T08:19:16;102643.34;;;24.79;20.23
45040;BME280;30778;53.574;7.770;2023-05-20T08:21:53;102649.41;;;24.31;21.42
45040;BME280;30778;53.574;7.770;2023-05-20T08:24:31;102646.53;;;24.84;20.98
45040;BME280;30778;53.574;7.770;2023-05-20T08:26:57;102644.31;;;24.15;21.29
45040;BME280;30778;53.574;7.770;2023-05-20T08:29:27;102644.19;;;24.55;21.22
45040;BME280;30778;53.574;7.770;2023-05-20T08:32:02;102641.03;;;24.61;20.88
45040;BME280;30778;53.574;7.770;2023-05-20T08:34:33;102639.84;;;24.65;21.74
45040;BME280;30778;53.574;7.770;2023-05-20T08:37:03;102645.88;;;24.56;21.72
45040;BME280;30778;53.574;7.770;2023-05-20T08:39:41;102631.13;;;23.61;22.57
45040;BME280;30778;53.574;7.770;2023-05-20T08:42:21;102638.19;;;23.22;23.14
45040;BME280;30778;53.574;7.770;2023-05-20T08:44:50;102634.53;;;23.63;22.27
45040;BME280;30778;53.574;7.770;2023-05-20T08:47:21;102630.72;;;23.67;22.42
45040;BME280;30778;53.574;7.770;2023-05-20T08:49:53;102631.56;;;23.80;22.93
45040;BME280;30778;53.574;7.770;2023-05-20T08:52:29;102630.53;;;24.21;21.79
45040;BME280;30778;53.574;7.770;2023-05-20T08:55:24;102626.41;;;24.91;20.93
45040;BME280;30778;53.574;7.770;2023-05-20T08:57:59;102624.69;;;23.91;22.62
45040;BME280;30778;53.574;7.770;2023-05-20T09:00:41;102622.81;;;22.98;23.56
45040;BME280;30778;53.574;7.770;2023-05-20T09:03:11;102625.47;;;23.13;23.66
45040;BME280;30778;53.574;7.770;2023-05-20T09:05:39;102616.25;;;22.63;23.69
45040;BME280;30778;53.574;7.770;2023-05-20T09:08:08;102617.13;;;22.63;24.89
45040;BME280;30778;53.574;7.770;2023-05-20T09:10:41;102621.00;;;22.16;25.26
45040;BME280;30778;53.574;7.770;2023-05-20T09:13:10;102616.50;;;22.45;25.41
45040;BME280;30778;53.574;7.770;2023-05-20T09:15:38;102613.41;;;21.65;25.12
45040;BME280;30778;53.574;7.770;2023-05-20T09:18:53;102618.59;;;21.36;25.58
45040;BME280;30778;53.574;7.770;2023-05-20T09:21:40;102621.34;;;21.05;26.56
45040;BME280;30778;53.574;7.770;2023-05-20T09:24:06;102610.00;;;21.01;28.08
45040;BME280;30778;53.574;7.770;2023-05-20T09:26:34;102608.34;;;20.84;27.97
45040;BME280;30778;53.574;7.770;2023-05-20T09:29:03;102613.81;;;20.32;28.86
45040;BME280;30778;53.574;7.770;2023-05-20T09:31:36;102617.38;;;19.82;29.23
45040;BME280;30778;53.574;7.770;2023-05-20T09:34:03;102609.53;;;19.61;29.72
45040;BME280;30778;53.574;7.770;2023-05-20T09:36:35;102617.88;;;19.00;30.95
45040;BME280;30778;53.574;7.770;2023-05-20T09:39:04;102598.63;;;18.96;30.74
45040;BME280;30778;53.574;7.770;2023-05-20T09:42:01;102607.63;;;19.11;30.67
45040;BME280;30778;53.574;7.770;2023-05-20T09:44:47;102602.38;;;19.46;31.92
45040;BME280;30778;53.574;7.770;2023-05-20T09:47:16;102607.91;;;19.59;30.79
45040;BME280;30778;53.574;7.770;2023-05-20T09:49:45;102609.88;;;19.73;30.44
45040;BME280;30778;53.574;7.770;2023-05-20T09:52:19;102602.91;;;19.53;30.02
45040;BME280;30778;53.574;7.770;2023-05-20T09:54:52;102599.63;;;18.94;31.04
45040;BME280;30778;53.574;7.770;2023-05-20T09:57:22;102602.41;;;19.27;31.65
45040;BME280;30778;53.574;7.770;2023-05-20T10:00:01;102595.34;;;19.80;29.74
45040;BME280;30778;53.574;7.770;2023-05-20T10:02:50;102586.25;;;19.14;29.43
45040;BME280;30778;53.574;7.770;2023-05-20T10:05:39;102585.16;;;19.01;31.14
45040;BME280;30778;53.574;7.770;2023-05-20T10:17:24;102575.53;;;19.17;30.10
45040;BME280;30778;53.574;7.770;2023-05-20T10:20:00;102572.25;;;19.47;29.10
45040;BME280;30778;53.574;7.770;2023-05-20T10:22:56;102581.28;;;19.43;30.70
45040;BME280;30778;53.574;7.770;2023-05-20T10:26:05;102578.84;;;19.57;28.98
45040;BME280;30778;53.574;7.770;2023-05-20T10:28:41;102563.69;;;19.42;30.35
45040;BME280;30778;53.574;7.770;2023-05-20T10:31:21;102566.03;;;19.48;28.98
45040;BME280;30778;53.574;7.770;2023-05-20T10:34:00;102555.22;;;18.99;29.83
45040;BME280;30778;53.574;7.770;2023-05-20T10:36:28;102562.44;;;19.49;28.76
45040;BME280;30778;53.574;7.770;2023-05-20T10:38:59;102545.97;;;19.25;29.45
45040;BME280;30778;53.574;7.770;2023-05-20T10:41:35;102546.91;;;19.06;30.03
45040;BME280;30778;53.574;7.770;2023-05-20T10:44:23;102546.66;;;19.63;29.43
45040;BME280;30778;53.574;7.770;2023-05-20T10:47:01;102535.13;;;19.47;28.79
45040;BME280;30778;53.574;7.770;2023-05-20T10:49:34;102527.31;;;19.61;28.51
45040;BME280;30778;53.574;7.770;2023-05-20T10:52:33;102519.34;;;20.44;28.23
45040;BME280;30778;53.574;7.770;2023-05-20T10:55:18;102519.72;;;20.38;27.51
45040;BME280;30778;53.574;7.770;2023-05-20T10:57:56;102522.91;;;19.95;27.31
45040;BME280;30778;53.574;7.770;2023-05-20T11:00:24;102525.66;;;20.09;27.54
45040;BME280;30778;53.574;7.770;2023-05-20T11:02:54;102517.56;;;20.60;27.14
45040;BME280;30778;53.574;7.770;2023-05-20T11:05:28;102513.28;;;20.58;27.50
45040;BME280;30778;53.574;7.770;2023-05-20T11:08:08;102515.09;;;20.08;27.19
45040;BME280;30778;53.574;7.770;2023-05-20T11:10:45;102511.25;;;20.31;27.79
45040;BME280;30778;53.574;7.770;2023-05-20T11:13:12;102510.34;;;20.30;27.95
45040;BME280;30778;53.574;7.770;2023-05-20T11:15:39;102509.13;;;20.68;25.69
45040;BME280;30778;53.574;7.770;2023-05-20T11:18:10;102503.47;;;20.74;27.09
45040;BME280;30778;53.574;7.770;2023-05-20T11:20:48;102492.06;;;21.18;25.09
45040;BME280;30778;53.574;7.770;2023-05-20T11:23:19;102492.78;;;21.06;27.30
45040;BME280;30778;53.574;7.770;2023-05-20T11:25:51;102495.47;;;20.60;27.98
45040;BME280;30778;53.574;7.770;2023-05-20T11:28:29;102492.38;;;20.82;26.72
45040;BME280;30778;53.574;7.770;2023-05-20T11:31:00;102488.22;;;20.62;27.19
45040;BME280;30778;53.574;7.770;2023-05-20T11:33:39;102474.22;;;20.60;26.85
45040;BME280;30778;53.574;7.770;2023-05-20T11:36:19;102491.53;;;20.81;25.98
45040;BME280;30778;53.574;7.770;2023-05-20T11:38:51;102481.44;;;20.42;26.74
45040;BME280;30778;53.574;7.770;2023-05-20T11:41:24;102482.91;;;20.93;26.28
45040;BME280;30778;53.574;7.770;2023-05-20T11:43:58;102475.72;;;21.24;25.65
45040;BME280;30778;53.574;7.770;2023-05-20T11:46:40;102483.41;;;21.14;25.69
45040;BME280;30778;53.574;7.770;2023-05-20T11:49:11;102472.00;;;20.82;25.72
45040;BME280;30778;53.574;7.770;2023-05-20T11:51:42;102476.47;;;20.66;25.77
45040;BME280;30778;53.574;7.770;2023-05-20T11:54:10;102478.59;;;20.75;25.45
45040;BME280;30778;53.574;7.770;2023-05-20T11:56:39;102471.47;;;20.45;24.57
45040;BME280;30778;53.574;7.770;2023-05-20T11:59:25;102462.41;;;20.33;26.56
45040;BME280;30778;53.574;7.770;2023-05-20T12:02:04;102458.28;;;21.20;24.44
45040;BME280;30778;53.574;7.770;2023-05-20T12:04:32;102451.94;;;20.92;25.65
45040;BME280;30778;53.574;7.770;2023-05-20T12:07:06;102444.72;;;20.94;23.61
45040;BME280;30778;53.574;7.770;2023-05-20T12:09:44;102449.09;;;20.80;24.67
45040;BME280;30778;53.574;7.770;2023-05-20T12:12:19;102437.38;;;21.14;25.62
45040;BME280;30778;53.574;7.770;2023-05-20T12:14:51;102443.00;;;21.52;23.29
45040;BME280;30778;53.574;7.770;2023-05-20T12:17:33;102436.59;;;21.12;24.29
45040;BME280;30778;53.574;7.770;2023-05-20T12:20:01;102446.25;;;20.99;24.93
45040;BME280;30778;53.574;7.770;2023-05-20T12:22:43;102445.66;;;21.38;24.29
45040;BME280;30778;53.574;7.770;2023-05-20T12:25:19;102437.38;;;21.43;23.23
45040;BME280;30778;53.574;7.770;2023-05-20T12:27:50;102430.75;;;21.35;24.24
45040;BME280;30778;53.574;7.770;2023-05-20T12:30:24;102436.63;;;21.41;23.35
45040;BME280;30778;53.574;7.770;2023-05-20T12:33:05;102441.25;;;20.78;23.74
45040;BME280;30778;53.574;7.770;2023-05-20T12:35:57;102435.84;;;21.10;23.63
45040;BME280;30778;53.574;7.770;2023-05-20T12:38:25;102425.47;;;21.20;23.08
45040;BME280;30778;53.574;7.770;2023-05-20T12:41:18;102430.13;;;21.02;23.15
45040;BME280;30778;53.574;7.770;2023-05-20T12:44:00;102434.44;;;21.19;24.59
45040;BME280;30778;53.574;7.770;2023-05-20T12:46:26;102436.25;;;20.88;23.59
45040;BME280;30778;53.574;7.770;2023-05-20T12:49:11;102427.69;;;21.42;24.02
45040;BME280;30778;53.574;7.770;2023-05-20T12:51:43;102420.88;;;21.52;22.37
45040;BME280;30778;53.574;7.770;2023-05-20T12:54:13;102419.50;;;21.16;23.75
45040;BME280;30778;53.574;7.770;2023-05-20T12:56:54;102424.66;;;21.76;22.77
45040;BME280;30778;53.574;7.770;2023-05-20T12:59:38;102420.44;;;21.87;23.55
45040;BME280;30778;53.574;7.770;2023-05-20T13:02:26;102404.84;;;20.94;23.03
45040;BME280;30778;53.574;7.770;2023-05-20T13:05:21;102408.13;;;21.28;23.89
45040;BME280;30778;53.574;7.770;2023-05-20T13:08:06;102414.63;;;20.64;24.04
45040;BME280;30778;53.574;7.770;2023-05-20T13:11:04;102413.47;;;20.53;25.98
45040;BME280;30778;53.574;7.770;2023-05-20T13:13:42;102407.91;;;19.63;25.09
45040;BME280;30778;53.574;7.770;2023-05-20T13:16:13;102407.84;;;18.96;25.39
45040;BME280;30778;53.574;7.770;2023-05-20T13:18:52;102412.44;;;18.58;26.27
45040;BME280;30778;53.574;7.770;2023-05-20T13:21:31;102405.56;;;18.54;26.08
45040;BME280;30778;53.574;7.770;2023-05-20T13:24:03;102391.72;;;18.66;27.43
45040;BME280;30778;53.574;7.770;2023-05-20T13:26:34;102396.44;;;18.42;26.54
45040;BME280;30778;53.574;7.770;2023-05-20T13:29:09;102405.63;;;17.78;27.51
45040;BME280;30778;53.574;7.770;2023-05-20T13:31:35;102392.78;;;17.89;27.61
45040;BME280;30778;53.574;7.770;2023-05-20T13:34:16;102391.00;;;17.71;28.22
45040;BME280;30778;53.574;7.770;2023-05-20T13:36:44;102389.50;;;17.65;28.20
45040;BME280;30778;53.574;7.770;2023-05-20T13:39:25;102393.22;;;17.80;28.27
45040;BME280;30778;53.574;7.770;2023-05-20T13:42:00;102383.31;;;18.02;28.48